Time;durP1;ratioP1;P1;durP2;ratioP2;P2;SDS_P1;SDS_P2;PMS_P1;PMS_P2;Temp;Humidity;BMP_temperature;BMP_pressure;BME280_temperature;BME280_humidity;BME280_pressure;Samples;Min_cycle;Max_cycle;Signal;HPM_P1;HPM_P2
2022/06/21 00:02:00;;;;;;;8.45;5.10;;;;;;;12.79;81.22;101610.53;5116245;28;20120;-56
2022/06/21 00:04:25;;;;;;;11.43;5.43;;;;;;;12.67;81.63;101618.50;5115828;28;20441;-56
2022/06/21 00:06:50;;;;;;;10.60;5.55;;;;;;;12.51;82.47;101609.91;5115707;28;20027;-56
2022/06/21 00:09:17;;;;;;;10.60;5.60;;;;;;;12.47;83.21;101608.19;5116037;28;20092;-56
2022/06/21 00:11:42;;;;;;;9.38;5.55;;;;;;;12.55;83.52;101621.25;5115779;28;20426;-56
2022/06/21 00:14:08;;;;;;;11.27;5.47;;;;;;;12.69;83.01;101618.50;5115506;28;20038;-56
2022/06/21 00:16:33;;;;;;;10.10;5.80;;;;;;;12.61;82.78;101610.72;5115019;28;20028;-56
2022/06/21 00:18:59;;;;;;;9.02;5.35;;;;;;;12.49;83.09;101614.28;5115737;28;20036;-57
2022/06/21 00:21:30;;;;;;;9.88;5.40;;;;;;;12.44;83.91;101612.63;5115932;28;20107;-56
2022/06/21 00:23:56;;;;;;;10.32;5.63;;;;;;;12.47;83.90;101608.19;5115826;28;20023;-56
2022/06/21 00:26:23;;;;;;;10.52;5.55;;;;;;;12.59;83.62;101622.09;5115432;28;20034;-57
2022/06/21 00:28:49;;;;;;;11.80;6.32;;;;;;;12.56;83.91;101625.63;5115604;28;20507;-56
2022/06/21 00:31:19;;;;;;;12.63;6.22;;;;;;;12.59;83.51;101614.22;5115365;28;20036;-55
2022/06/21 00:33:44;;;;;;;11.60;6.03;;;;;;;12.58;83.41;101615.13;5115381;28;20024;-56
2022/06/21 00:36:32;;;;;;;9.48;6.18;;;;;;;12.60;82.42;101608.97;5115321;28;20031;-55
2022/06/21 00:38:59;;;;;;;10.05;6.55;;;;;;;12.48;83.57;101611.69;5115084;28;20023;-56
2022/06/21 00:41:54;;;;;;;9.05;5.88;;;;;;;12.36;83.51;101607.41;5115196;28;20031;-56
2022/06/21 00:44:32;;;;;;;10.77;5.70;;;;;;;12.35;83.55;101610.94;5115466;28;20032;-56
2022/06/21 00:47:16;;;;;;;11.98;6.60;;;;;;;12.17;84.10;101613.69;5115529;28;20172;-56
2022/06/21 00:49:52;;;;;;;9.85;6.28;;;;;;;12.20;84.58;101611.94;5115616;28;20099;-56
2022/06/21 00:52:22;;;;;;;10.75;6.47;;;;;;;12.24;84.70;101610.16;5115181;28;20114;-55
2022/06/21 00:55:02;;;;;;;9.85;6.25;;;;;;;12.29;84.13;101592.63;5115238;28;20450;-57
2022/06/21 00:57:39;;;;;;;12.75;7.00;;;;;;;12.15;84.00;101600.59;5115018;28;20031;-56
2022/06/21 01:00:49;;;;;;;11.55;7.28;;;;;;;11.98;84.01;101599.84;5115345;28;20361;-55
2022/06/21 01:03:20;;;;;;;14.18;7.35;;;;;;;11.97;85.39;101595.47;5067770;28;20031;-55
2022/06/21 01:05:46;;;;;;;11.52;6.95;;;;;;;11.89;85.43;101589.44;5114491;28;20324;-55
2022/06/21 01:08:20;;;;;;;12.82;7.38;;;;;;;11.70;86.19;101574.66;5114933;28;20036;-55
2022/06/21 01:10:51;;;;;;;13.98;7.95;;;;;;;11.56;87.21;101572.13;5115048;28;20063;-57
2022/06/21 01:13:22;;;;;;;12.15;7.95;;;;;;;11.48;87.96;101564.28;5114983;28;20098;-56
2022/06/21 01:15:51;;;;;;;13.43;8.52;;;;;;;11.57;87.77;101562.50;5115097;28;20044;-56
2022/06/21 01:18:21;;;;;;;13.40;8.13;;;;;;;11.64;87.55;101564.19;5114780;28;20051;-56
2022/06/21 01:20:51;;;;;;;15.02;8.27;;;;;;;11.65;87.57;101560.69;5115135;28;20027;-55
2022/06/21 01:23:32;;;;;;;12.95;8.70;;;;;;;11.66;88.01;101572.94;5114860;28;20028;-56
2022/06/21 01:26:38;;;;;;;13.95;9.95;;;;;;;11.65;87.24;101568.56;5115177;28;20043;-56
2022/06/21 01:29:07;;;;;;;14.75;9.68;;;;;;;11.63;88.41;101560.72;5102904;28;20066;-56
2022/06/21 01:31:32;;;;;;;13.25;9.63;;;;;;;11.69;88.16;101570.28;5118476;28;20041;-57
2022/06/21 01:33:58;;;;;;;15.20;9.88;;;;;;;11.64;88.36;101559.81;5118745;28;20057;-56
2022/06/21 01:36:28;;;;;;;15.90;10.45;;;;;;;11.72;88.01;101565.03;5118893;28;20123;-56
2022/06/21 01:38:57;;;;;;;17.55;10.20;;;;;;;11.76;88.13;101561.56;5118560;28;20465;-57
2022/06/21 01:41:30;;;;;;;14.93;9.27;;;;;;;11.74;88.50;101571.16;5119113;28;20035;-56
2022/06/21 01:44:01;;;;;;;14.90;8.80;;;;;;;11.79;88.31;101565.00;5118360;28;20027;-55
2022/06/21 01:46:30;;;;;;;13.38;9.30;;;;;;;11.76;87.60;101567.66;5118458;28;20031;-55
2022/06/21 01:49:03;;;;;;;12.80;9.05;;;;;;;11.60;88.24;101570.38;5118625;28;20096;-55
2022/06/21 01:51:33;;;;;;;11.90;9.07;;;;;;;11.54;88.66;101567.78;5118145;28;20116;-56
2022/06/21 01:54:01;;;;;;;12.70;8.50;;;;;;;11.58;88.68;101564.25;5118584;28;20115;-57
2022/06/21 01:56:37;;;;;;;14.45;8.50;;;;;;;11.60;88.32;101557.25;5118300;28;20040;-56
2022/06/21 01:59:26;;;;;;;11.80;8.32;;;;;;;11.48;88.26;101555.56;5118146;28;20055;-56
2022/06/21 02:01:58;;;;;;;15.05;8.73;;;;;;;11.50;89.03;101556.44;5118265;28;20027;-56
2022/06/21 02:04:27;;;;;;;17.92;9.13;;;;;;;11.53;89.13;101561.66;5118081;28;20038;-56
2022/06/21 02:06:55;;;;;;;14.63;8.43;;;;;;;11.56;88.75;101560.78;5117845;28;20060;-54
2022/06/21 02:09:24;;;;;;;14.68;8.63;;;;;;;11.50;89.23;101557.28;5118103;28;20089;-56
2022/06/21 02:12:02;;;;;;;15.23;8.55;;;;;;;11.52;89.19;101552.91;5117864;28;20118;-56
2022/06/21 02:14:28;;;;;;;13.98;8.95;;;;;;;11.49;89.73;101550.31;5118065;28;20410;-56
2022/06/21 02:17:00;;;;;;;12.07;8.32;;;;;;;11.52;89.89;101559.91;5117852;28;20444;-56
2022/06/21 02:19:34;;;;;;;11.88;7.97;;;;;;;11.61;89.10;101544.13;5117710;28;20099;-56
2022/06/21 02:22:00;;;;;;;14.32;8.02;;;;;;;11.59;89.35;101548.53;5117782;28;20028;-56
2022/06/21 02:24:28;;;;;;;14.52;8.32;;;;;;;11.54;89.50;101544.19;5118049;28;20030;-55
2022/06/21 02:26:55;;;;;;;14.60;8.80;;;;;;;11.60;89.05;101541.53;5117919;28;20024;-56
2022/06/21 02:29:20;;;;;;;15.68;8.32;;;;;;;11.56;89.50;101539.81;5117940;28;20051;-56
2022/06/21 02:31:46;;;;;;;15.13;8.30;;;;;;;11.53;89.58;101535.44;5117770;28;20023;-55
2022/06/21 02:34:20;;;;;;;12.80;8.45;;;;;;;11.49;89.43;101523.22;5117420;28;20061;-57
2022/06/21 02:36:52;;;;;;;14.77;8.60;;;;;;;11.45;89.47;101511.88;5117569;28;20027;-56
2022/06/21 02:39:21;;;;;;;17.98;7.95;;;;;;;11.50;89.01;101515.38;5116946;28;20427;-55
2022/06/21 02:41:52;;;;;;;11.77;8.10;;;;;;;11.52;89.19;101518.84;5117522;28;20480;-57
2022/06/21 02:44:43;;;;;;;15.15;8.02;;;;;;;11.52;88.80;101524.09;5117653;28;20027;-57
2022/06/21 02:47:20;;;;;;;11.20;8.02;;;;;;;11.36;90.03;101535.53;5117482;28;20024;-57
2022/06/21 02:49:49;;;;;;;12.52;8.70;;;;;;;11.36;90.03;101530.31;5117438;28;20081;-58
2022/06/21 02:52:33;;;;;;;12.60;8.57;;;;;;;11.28;88.78;101532.09;5117326;28;20457;-57
2022/06/21 02:55:20;;;;;;;14.25;8.45;;;;;;;11.24;89.56;101529.50;5117131;28;20028;-53
2022/06/21 02:57:49;;;;;;;15.02;8.57;;;;;;;11.12;90.25;101527.81;5116786;28;20032;-55
2022/06/21 03:00:18;;;;;;;11.95;7.93;;;;;;;11.00;90.84;101540.97;5117307;28;20048;-55
2022/06/21 03:02:44;;;;;;;11.43;8.45;;;;;;;10.98;91.26;101543.56;5117189;28;20050;-56
2022/06/21 03:05:19;;;;;;;13.32;8.65;;;;;;;10.98;91.24;101534.84;5116835;28;20027;-55
2022/06/21 03:07:53;;;;;;;14.02;8.43;;;;;;;10.96;91.37;101526.13;5116963;28;20377;-56
2022/06/21 03:10:34;;;;;;;13.68;8.48;;;;;;;11.03;90.73;101531.34;5117082;28;20032;-56
2022/06/21 03:13:08;;;;;;;12.93;8.30;;;;;;;11.03;90.89;101533.97;5117036;28;20035;-57
2022/06/21 03:15:34;;;;;;;13.00;8.23;;;;;;;11.03;90.71;101533.09;5116705;28;20032;-56
2022/06/21 03:18:08;;;;;;;12.18;8.25;;;;;;;11.02;90.24;101532.22;5117057;28;20028;-56
2022/06/21 03:20:34;;;;;;;14.40;8.57;;;;;;;10.92;90.84;101535.72;5116499;28;20034;-56
2022/06/21 03:23:01;;;;;;;15.95;8.80;;;;;;;10.98;90.67;101533.09;5116785;28;20032;-54
2022/06/21 03:25:36;;;;;;;15.35;8.43;;;;;;;11.01;90.32;101529.59;5116595;28;20028;-55
2022/06/21 03:28:02;;;;;;;14.88;8.13;;;;;;;11.00;89.90;101538.34;5116618;28;20047;-57
2022/06/21 03:30:31;;;;;;;17.10;8.43;;;;;;;10.90;90.19;101537.53;5116402;28;20042;-55
2022/06/21 03:32:59;;;;;;;12.80;8.88;;;;;;;10.82;90.82;101541.91;5116314;28;20042;-55
2022/06/21 03:35:27;;;;;;;16.42;8.38;;;;;;;10.85;90.45;101539.28;5116450;28;20035;-55
2022/06/21 03:37:52;;;;;;;13.70;8.35;;;;;;;10.77;90.23;101525.31;5116308;28;20046;-56
2022/06/21 03:43:15;;;;;;;16.70;9.52;;;;;;;10.65;91.78;101521.00;5116221;28;20046;-56
2022/06/21 03:45:44;;;;;;;13.48;8.98;;;;;;;10.74;92.04;101520.09;5116326;28;20035;-56
2022/06/21 03:48:16;;;;;;;17.17;10.15;;;;;;;10.80;91.99;101512.22;5116432;28;20028;-56
2022/06/21 03:50:53;;;;;;;11.73;9.05;;;;;;;10.87;90.94;101505.22;5115509;28;20035;-56
2022/06/21 03:53:28;;;;;;;15.93;9.52;;;;;;;10.88;91.36;101502.59;5115974;28;20027;-56
2022/06/21 03:56:23;;;;;;;13.88;9.77;;;;;;;10.94;91.07;101504.31;5115868;28;20031;-54
2022/06/21 03:58:54;;;;;;;14.75;10.02;;;;;;;10.99;91.95;101503.41;5116371;28;20107;-56
2022/06/21 04:01:32;;;;;;;17.98;10.35;;;;;;;10.99;92.32;101511.28;5115873;28;20031;-55
2022/06/21 04:04:29;;;;;;;15.20;9.65;;;;;;;11.09;91.42;101519.94;5116506;28;20031;-57
2022/06/21 04:07:04;;;;;;;15.23;10.07;;;;;;;11.10;92.11;101519.06;5116093;28;20057;-55
2022/06/21 04:09:54;;;;;;;15.32;9.40;;;;;;;11.14;91.61;101521.69;5115891;28;20039;-56
2022/06/21 04:12:30;;;;;;;17.33;10.20;;;;;;;11.18;91.57;101511.19;5115908;28;20041;-56
2022/06/21 04:14:58;;;;;;;18.45;10.43;;;;;;;11.20;91.73;101519.91;5115881;28;20023;-56
2022/06/21 04:17:34;;;;;;;15.63;9.73;;;;;;;11.23;91.72;101514.66;5115307;28;20325;-55
2022/06/21 04:20:09;;;;;;;15.93;10.55;;;;;;;11.25;91.76;101512.91;5115856;28;20023;-56
2022/06/21 04:22:56;;;;;;;14.75;10.50;;;;;;;11.31;91.72;101511.09;5116003;28;20028;-56
2022/06/21 04:25:46;;;;;;;17.50;11.38;;;;;;;11.39;91.31;101513.69;5115544;28;20035;-56
2022/06/21 04:28:21;;;;;;;16.55;11.07;;;;;;;11.36;91.93;101509.34;5115559;28;20052;-54
2022/06/21 04:30:53;;;;;;;18.92;11.68;;;;;;;11.32;92.30;101507.59;5115307;28;20035;-57
2022/06/21 04:33:31;;;;;;;16.70;11.13;;;;;;;11.35;92.29;101507.59;5115307;28;20035;-56
2022/06/21 04:36:07;;;;;;;15.77;10.82;;;;;;;11.35;92.53;101502.34;5115605;28;20035;-56
2022/06/21 04:38:44;;;;;;;17.48;11.02;;;;;;;11.44;92.50;101496.16;5115437;28;20040;-55
2022/06/21 04:41:21;;;;;;;17.60;11.43;;;;;;;11.41;92.94;101496.22;5115289;28;20092;-56
2022/06/21 04:43:57;;;;;;;16.92;10.38;;;;;;;11.50;93.10;101494.41;5115717;28;20470;-56
2022/06/21 04:46:35;;;;;;;14.90;10.38;;;;;;;11.61;92.27;101486.44;5115515;28;20111;-56
2022/06/21 04:49:21;;;;;;;17.48;10.40;;;;;;;11.65;92.75;101482.91;5116438;28;20093;-56
2022/06/21 04:51:58;;;;;;;18.70;10.55;;;;;;;11.70;92.66;101478.53;5115258;28;20026;-56
2022/06/21 04:54:27;;;;;;;17.30;10.50;;;;;;;11.75;92.37;101494.22;5115266;28;20038;-56
2022/06/21 04:57:15;;;;;;;16.95;10.35;;;;;;;11.79;92.56;101490.72;5115340;28;20123;-55
2022/06/21 04:59:44;;;;;;;18.83;10.38;;;;;;;11.83;92.15;101489.81;5115634;28;20456;-56
2022/06/21 05:02:23;;;;;;;15.15;10.02;;;;;;;11.78;92.35;101481.97;5117426;28;20118;-56
2022/06/21 05:05:06;;;;;;;16.90;9.98;;;;;;;11.84;92.84;101483.69;5119453;28;20032;-56
2022/06/21 05:07:43;;;;;;;17.05;10.43;;;;;;;11.89;92.48;101481.91;5119367;28;20036;-55
2022/06/21 05:10:15;;;;;;;17.15;10.07;;;;;;;11.91;92.94;101488.00;5119030;28;20351;-57
2022/06/21 05:12:43;;;;;;;17.88;9.77;;;;;;;12.01;92.21;101487.03;5119192;28;20499;-57
2022/06/21 05:15:24;;;;;;;21.08;10.10;;;;;;;12.02;92.15;101486.16;5119087;28;20031;-56
2022/06/21 05:17:59;;;;;;;14.52;9.85;;;;;;;12.10;92.26;101486.97;5119163;28;20141;-56
2022/06/21 05:20:33;;;;;;;14.55;9.15;;;;;;;12.16;92.10;101476.38;5119071;28;20032;-58
2022/06/21 05:23:01;;;;;;;17.33;9.25;;;;;;;12.25;91.79;101464.94;5118726;28;20028;-57
2022/06/21 05:25:35;;;;;;;14.48;8.63;;;;;;;12.33;90.86;101463.09;5118757;28;20038;-56
2022/06/21 05:28:19;;;;;;;12.88;8.18;;;;;;;12.27;90.54;101446.56;5118165;28;20424;-56
2022/06/21 05:30:50;;;;;;;14.77;8.07;;;;;;;12.45;90.35;101469.97;5118802;28;20035;-58
2022/06/21 05:33:28;;;;;;;12.63;7.18;;;;;;;12.51;89.26;101483.03;5118498;28;20491;-57
2022/06/21 05:35:54;;;;;;;11.77;7.00;;;;;;;12.60;87.66;101487.31;5118075;28;20028;-57
2022/06/21 05:38:26;;;;;;;10.50;6.78;;;;;;;12.64;87.58;101491.66;5118442;28;20037;-56
2022/06/21 05:40:57;;;;;;;14.50;7.00;;;;;;;12.70;87.21;101500.31;5100508;28;20429;-57
2022/06/21 05:43:52;;;;;;;12.60;7.35;;;;;;;12.79;86.84;101499.34;5118419;28;20103;-58
2022/06/21 05:46:22;;;;;;;10.77;6.68;;;;;;;12.84;86.66;101487.00;5096495;28;20095;-57
2022/06/21 05:48:49;;;;;;;14.35;7.20;;;;;;;12.93;86.84;101478.16;5118468;28;20074;-56
2022/06/21 05:51:28;;;;;;;13.18;7.35;;;;;;;13.01;86.25;101489.41;5117705;28;20063;-57
2022/06/21 05:53:58;;;;;;;9.52;6.05;;;;;;;13.01;84.87;101503.41;5117944;28;20066;-57
2022/06/21 05:56:26;;;;;;;10.18;6.18;;;;;;;13.07;84.23;101511.25;5117838;28;20413;-56
2022/06/21 05:59:01;;;;;;;9.82;6.35;;;;;;;13.19;84.33;101513.72;5118038;28;20055;-57
2022/06/21 06:01:53;;;;;;;12.40;6.40;;;;;;;14.16;82.54;101514.00;5118825;28;20031;-57
2022/06/21 06:04:31;;;;;;;;;;;;;;;14.81;80.45;101498.75;5118463;28;20054;-56
2022/06/21 06:06:59;;;;;;;15.02;6.10;;;;;;;14.88;77.11;101510.03;5118253;28;19918;-56
2022/06/21 06:09:30;;;;;;;12.88;5.43;;;;;;;14.71;77.82;101515.63;5117550;28;20024;-57
2022/06/21 06:12:08;;;;;;;9.70;5.07;;;;;;;14.49;77.94;101524.84;5117723;28;20053;-57
2022/06/21 06:14:52;;;;;;;9.13;5.55;;;;;;;14.23;78.53;101525.25;5117047;28;20032;-57
2022/06/21 06:17:39;;;;;;;10.27;5.05;;;;;;;14.07;79.26;101524.66;5117544;28;20027;-56
2022/06/21 06:20:12;;;;;;;9.60;5.10;;;;;;;14.06;79.70;101527.31;5117618;28;20057;-57
2022/06/21 06:22:44;;;;;;;10.32;4.72;;;;;;;14.00;79.21;101532.69;5117568;28;20042;-56
2022/06/21 06:25:22;;;;;;;11.73;5.20;;;;;;;13.90;79.96;101510.91;5117361;28;20028;-57
2022/06/21 06:28:14;;;;;;;8.93;4.55;;;;;;;14.08;79.89;101534.28;5117031;28;20062;-58
2022/06/21 06:30:47;;;;;;;11.07;4.05;;;;;;;14.15;79.23;101535.94;5117395;28;20031;-58
2022/06/21 06:33:18;;;;;;;12.13;4.10;;;;;;;14.16;78.19;101531.56;5117499;28;20107;-59
2022/06/21 06:35:45;;;;;;;11.70;4.20;;;;;;;14.18;78.02;101532.41;5117193;28;20027;-59
2022/06/21 06:38:14;;;;;;;8.55;3.97;;;;;;;14.20;77.82;101533.22;5117131;28;20293;-58
2022/06/21 06:40:47;;;;;;;11.00;3.70;;;;;;;14.25;77.72;101524.34;5117177;28;20036;-59
2022/06/21 06:43:21;;;;;;;8.75;3.90;;;;;;;14.32;77.36;101535.66;5117507;28;20031;-58
2022/06/21 06:45:48;;;;;;;9.93;4.05;;;;;;;14.41;77.24;101539.91;5117242;28;20073;-60
2022/06/21 06:48:22;;;;;;;7.60;4.35;;;;;;;14.49;76.29;101532.75;5117158;28;20019;-58
2022/06/21 06:51:02;;;;;;;8.32;3.78;;;;;;;14.56;75.63;101534.34;5117439;28;20095;-58
2022/06/21 06:53:33;;;;;;;9.43;4.00;;;;;;;14.58;75.47;101537.81;5117314;28;20035;-59
2022/06/21 06:56:03;;;;;;;8.55;3.58;;;;;;;14.69;74.41;101542.91;5117295;28;20490;-60
2022/06/21 06:58:48;;;;;;;7.63;3.40;;;;;;;14.85;74.78;101531.16;5116814;28;20081;-60
2022/06/21 07:01:17;;;;;;;7.35;4.00;;;;;;;15.05;73.91;101541.31;5113691;28;20052;-58
2022/06/21 07:04:06;;;;;;;8.32;4.35;;;;;;;15.02;72.64;101538.72;5107494;28;20028;-58
2022/06/21 07:06:45;;;;;;;8.77;3.90;;;;;;;15.05;73.54;101539.53;5115893;28;20043;-58
2022/06/21 07:09:20;;;;;;;10.57;4.22;;;;;;;15.09;73.69;101525.38;5116493;28;20284;-59
2022/06/21 07:11:58;;;;;;;8.52;4.07;;;;;;;15.22;73.89;101531.28;5116515;28;20038;-58
2022/06/21 07:14:26;;;;;;;11.77;4.43;;;;;;;15.35;72.92;101527.47;5116455;28;20061;-59
2022/06/21 07:16:55;;;;;;;8.60;4.18;;;;;;;15.44;72.36;101537.78;5116297;28;20059;-58
2022/06/21 07:19:21;;;;;;;9.18;3.70;;;;;;;15.49;70.74;101535.06;5116165;28;20032;-60
2022/06/21 07:21:47;;;;;;;9.73;3.95;;;;;;;15.51;70.25;101522.72;5116422;28;20031;-59
2022/06/21 07:24:15;;;;;;;11.98;4.63;;;;;;;15.55;70.52;101522.66;5116145;28;20427;-58
2022/06/21 07:26:50;;;;;;;10.77;4.43;;;;;;;15.59;70.83;101508.44;5116214;28;20070;-59
2022/06/21 07:29:29;;;;;;;13.10;4.10;;;;;;;15.66;71.27;101523.25;5116415;28;20135;-59
2022/06/21 07:32:08;;;;;;;9.57;4.43;;;;;;;15.76;70.82;101523.06;5116131;28;20085;-59
2022/06/21 07:34:43;;;;;;;9.88;4.45;;;;;;;15.95;71.76;101525.19;5115749;28;20050;-58
2022/06/21 07:37:18;;;;;;;9.77;4.00;;;;;;;16.05;70.39;101527.59;5115736;28;20034;-58
2022/06/21 07:39:52;;;;;;;10.82;4.47;;;;;;;16.06;69.63;101527.56;5115989;28;20432;-59
2022/06/21 07:42:31;;;;;;;10.90;4.53;;;;;;;16.16;68.71;101522.91;5115448;28;20035;-60
2022/06/21 07:45:09;;;;;;;8.95;4.43;;;;;;;16.21;68.71;101526.31;5115425;28;20028;-58
2022/06/21 07:47:42;;;;;;;10.05;4.15;;;;;;;16.19;68.28;101522.84;5115595;28;20035;-57
2022/06/21 07:50:21;;;;;;;12.07;4.82;;;;;;;16.25;69.28;101518.28;5115658;28;20039;-57
2022/06/21 07:53:02;;;;;;;8.00;4.50;;;;;;;16.47;68.94;101515.03;5115612;28;20434;-58
2022/06/21 07:55:35;;;;;;;10.48;4.30;;;;;;;16.38;66.54;101513.53;5115352;28;20511;-58
2022/06/21 07:58:22;;;;;;;8.82;4.10;;;;;;;16.34;66.27;101514.50;5115400;28;20121;-57
2022/06/21 08:06:43;;;;;;;9.52;3.97;;;;;;;17.02;64.30;101501.16;5115463;28;20046;-57
2022/06/21 08:09:24;;;;;;;9.70;4.70;;;;;;;17.11;65.39;101485.03;5115543;28;20079;-58
2022/06/21 08:11:51;;;;;;;7.07;4.25;;;;;;;17.20;64.24;101491.81;5115018;28;20075;-58
2022/06/21 08:14:17;;;;;;;9.52;4.28;;;;;;;17.25;63.25;101495.19;5115481;28;20089;-57
2022/06/21 08:16:55;;;;;;;9.90;4.22;;;;;;;16.97;63.58;101479.31;5115512;28;20028;-57
2022/06/21 08:19:35;;;;;;;7.82;3.90;;;;;;;17.12;64.11;101501.78;5115276;28;20031;-58
2022/06/21 08:22:08;;;;;;;10.18;3.58;;;;;;;17.12;62.39;101497.38;5114999;28;20031;-58
2022/06/21 08:24:42;;;;;;;11.52;4.00;;;;;;;17.09;61.69;101486.88;5115077;28;20142;-57
2022/06/21 08:27:17;;;;;;;7.82;3.53;;;;;;;17.05;62.04;101479.94;5115262;28;20476;-58
2022/06/21 08:29:50;;;;;;;10.52;3.80;;;;;;;17.19;61.08;101477.72;5112617;28;20048;-57
2022/06/21 08:32:26;;;;;;;8.07;3.70;;;;;;;17.25;62.14;101463.47;5094633;28;20120;-58
2022/06/21 08:34:56;;;;;;;7.82;3.33;;;;;;;17.38;60.59;101454.22;5094676;28;20085;-58
2022/06/21 08:37:55;;;;;;;6.47;3.17;;;;;;;17.45;62.04;101461.06;5094186;28;20389;-57
2022/06/21 08:40:43;;;;;;;10.10;4.10;;;;;;;17.52;61.30;101474.94;5060958;28;20438;-58
2022/06/21 08:43:09;;;;;;;9.48;4.03;;;;;;;17.60;60.04;101460.56;5094470;28;20032;-58
2022/06/21 08:45:49;;;;;;;7.00;3.67;;;;;;;17.77;60.35;101451.22;5094820;28;20119;-59
2022/06/21 08:48:36;;;;;;;7.45;4.00;;;;;;;17.79;60.65;101450.25;5094651;28;20262;-58
2022/06/21 08:51:35;;;;;;;10.50;4.88;;;;;;;17.83;60.25;101440.44;5094895;28;20056;-59
2022/06/21 08:54:12;;;;;;;6.45;4.57;;;;;;;17.85;58.68;101430.63;5094914;28;20032;-58
2022/06/21 08:57:13;;;;;;;10.02;4.80;;;;;;;17.96;60.15;101426.72;5094753;28;20126;-59
2022/06/21 09:00:02;;;;;;;7.07;4.22;;;;;;;18.02;59.74;101438.88;5061807;28;20040;-58
2022/06/21 09:02:56;;;;;;;9.10;4.28;;;;;;;18.09;59.12;101435.09;5094536;28;20114;-58
2022/06/21 09:05:33;;;;;;;8.98;3.90;;;;;;;18.12;58.78;101423.53;5094810;28;20103;-59
2022/06/21 09:08:25;;;;;;;7.40;4.03;;;;;;;18.17;57.43;101430.41;5094246;28;20024;-59
2022/06/21 09:11:16;;;;;;;9.95;4.32;;;;;;;18.51;57.88;101421.22;5094189;28;20507;-61
2022/06/21 09:13:59;;;;;;;8.23;4.35;;;;;;;19.46;54.65;101411.31;5094868;28;20028;-60
2022/06/21 09:16:39;;;;;;;7.30;3.80;;;;;;;20.31;51.70;101398.81;5094261;28;20451;-58
2022/06/21 09:19:08;;;;;;;12.88;4.32;;;;;;;20.61;52.92;101405.41;5094553;28;20038;-58
2022/06/21 09:21:51;;;;;;;7.72;4.22;;;;;;;21.33;50.35;101394.03;5094545;28;20032;-58
2022/06/21 09:24:55;;;;;;;8.07;3.95;;;;;;;22.50;47.54;101387.97;5093926;28;20486;-59
2022/06/21 09:27:30;;;;;;;7.05;3.78;;;;;;;23.09;44.47;101379.31;5042860;28;20482;-59
2022/06/21 09:30:04;;;;;;;6.68;3.70;;;;;;;24.04;43.32;101371.09;5094464;28;20051;-59
2022/06/21 09:32:48;;;;;;;8.93;3.67;;;;;;;25.22;42.84;101373.38;5094707;28;20034;-63
2022/06/21 09:35:42;;;;;;;5.75;3.25;;;;;;;25.00;41.79;101360.53;5094344;28;20103;-59
2022/06/21 09:38:26;;;;;;;6.05;3.60;;;;;;;24.21;41.07;101354.84;5094910;28;20032;-59
2022/06/21 09:41:20;;;;;;;4.75;3.70;;;;;;;23.07;44.44;101375.00;5094427;28;20032;-58
2022/06/21 09:44:05;;;;;;;5.68;3.60;;;;;;;22.30;45.76;101380.19;5094269;28;20024;-58
2022/06/21 09:46:36;;;;;;;6.18;3.38;;;;;;;21.69;45.68;101389.53;5094063;28;20036;-58
2022/06/21 09:49:10;;;;;;;7.13;3.58;;;;;;;21.22;47.61;101399.03;5095940;28;20031;-59
2022/06/21 09:52:01;;;;;;;4.85;3.15;;;;;;;20.96;46.79;101387.81;5097984;28;20028;-59
2022/06/21 09:54:41;;;;;;;5.65;3.70;;;;;;;20.60;48.67;101378.94;5097983;28;20028;-59
2022/06/21 09:57:37;;;;;;;6.95;3.80;;;;;;;20.35;50.34;101368.50;5097739;28;20351;-58
2022/06/21 10:00:12;;;;;;;6.57;3.50;;;;;;;20.19;51.01;101368.34;5097477;28;20032;-57
2022/06/21 10:03:06;;;;;;;8.45;3.90;;;;;;;20.03;50.84;101370.81;5097559;28;20028;-59
2022/06/21 10:05:48;;;;;;;5.75;3.90;;;;;;;19.84;49.46;101384.97;5097576;28;20081;-58
2022/06/21 10:08:28;;;;;;;6.13;3.15;;;;;;;19.91;50.59;101391.75;5097715;28;20435;-60
2022/06/21 10:11:13;;;;;;;6.97;3.20;;;;;;;20.15;50.35;101391.53;5097552;28;20036;-58
2022/06/21 10:14:00;;;;;;;7.03;3.08;;;;;;;20.38;49.83;101379.03;5097525;28;20050;-59
2022/06/21 10:16:35;;;;;;;5.47;3.65;;;;;;;20.30;48.15;101383.78;5097527;28;20127;-59
2022/06/21 10:19:36;;;;;;;6.15;3.38;;;;;;;20.16;49.49;101382.63;5097555;28;20465;-58
2022/06/21 10:22:30;;;;;;;6.38;3.58;;;;;;;20.24;49.70;101382.28;5097377;28;20423;-58
2022/06/21 10:25:14;;;;;;;7.18;3.47;;;;;;;20.39;49.63;101389.59;5096969;28;20046;-59
2022/06/21 10:28:01;;;;;;;7.40;4.25;;;;;;;20.68;49.49;101390.91;5097226;28;20112;-60
2022/06/21 10:30:39;;;;;;;7.32;3.85;;;;;;;20.67;50.56;101393.66;5097850;28;20068;-58
2022/06/21 10:33:30;;;;;;;8.45;4.60;;;;;;;20.83;50.13;101387.53;5097289;28;20028;-59
2022/06/21 10:36:20;;;;;;;8.02;3.90;;;;;;;20.95;48.87;101383.44;5097379;28;20051;-60
2022/06/21 10:39:27;;;;;;;7.90;4.57;;;;;;;20.84;49.64;101391.06;5097246;28;20040;-60
2022/06/21 10:45:08;;;;;;;8.45;4.18;;;;;;;20.98;49.65;101385.94;5096915;28;20142;-58
2022/06/21 10:47:39;;;;;;;7.18;4.75;;;;;;;20.77;48.82;101389.63;5097286;28;20016;-58
2022/06/21 10:50:17;;;;;;;9.50;4.28;;;;;;;20.62;49.76;101385.00;5096927;28;20027;-58
2022/06/21 10:53:08;;;;;;;9.63;4.53;;;;;;;20.58;49.96;101386.97;5096932;28;20161;-58
2022/06/21 10:55:48;;;;;;;6.45;3.67;;;;;;;20.61;50.07;101388.59;5096699;28;20028;-58
2022/06/21 10:58:43;;;;;;;9.60;4.03;;;;;;;20.42;50.62;101393.94;5097033;28;20016;-58
2022/06/21 11:01:32;;;;;;;6.95;4.22;;;;;;;20.79;50.59;101401.03;5096187;28;20024;-59
2022/06/21 11:04:12;;;;;;;8.45;5.00;;;;;;;20.76;49.28;101402.06;5096642;28;20050;-58
2022/06/21 11:06:37;;;;;;;8.38;4.07;;;;;;;20.76;49.03;101406.53;5096714;28;20496;-58
2022/06/21 11:09:21;;;;;;;7.00;4.17;;;;;;;20.86;50.27;101405.16;5096816;28;20119;-58
2022/06/21 11:11:56;;;;;;;9.07;4.20;;;;;;;20.76;50.00;101385.25;5096424;28;20281;-59
2022/06/21 11:14:45;;;;;;;9.52;4.47;;;;;;;20.90;49.87;101396.09;5096462;28;20043;-59
2022/06/21 11:17:27;;;;;;;9.98;4.38;;;;;;;20.90;51.04;101390.78;5096306;28;20039;-59
2022/06/21 11:20:12;;;;;;;9.13;4.35;;;;;;;21.03;50.51;101396.38;5096363;28;20039;-60
2022/06/21 11:23:08;;;;;;;6.22;4.07;;;;;;;20.89;50.66;101381.06;5096773;28;20039;-60
2022/06/21 11:25:50;;;;;;;7.65;4.60;;;;;;;20.88;49.67;101389.97;5096102;28;20063;-59
2022/06/21 11:28:43;;;;;;;9.73;5.15;;;;;;;20.81;50.10;101391.19;5096091;28;20040;-59
2022/06/21 11:31:42;;;;;;;8.63;5.00;;;;;;;20.80;50.08;101389.47;5096469;28;20396;-59
2022/06/21 11:34:46;;;;;;;8.02;4.63;;;;;;;20.73;49.60;101385.38;5055844;28;20435;-59
2022/06/21 11:37:54;;;;;;;6.85;4.55;;;;;;;20.81;49.95;101383.22;5057997;28;20511;-59
2022/06/21 11:40:35;;;;;;;8.02;4.47;;;;;;;20.99;49.47;101386.78;5096037;28;20133;-58
2022/06/21 11:43:03;;;;;;;9.63;4.38;;;;;;;21.08;48.68;101375.72;5095860;28;20032;-59
2022/06/21 11:45:47;;;;;;;6.05;3.83;;;;;;;21.00;48.69;101376.09;5096080;28;20511;-59
2022/06/21 11:48:23;;;;;;;8.90;4.15;;;;;;;20.94;48.25;101367.56;5095877;28;20357;-58
2022/06/21 11:51:09;;;;;;;6.13;3.83;;;;;;;20.97;48.74;101376.22;5095487;28;20053;-59
2022/06/21 11:54:12;;;;;;;8.82;3.90;;;;;;;21.22;48.02;101364.44;5095659;28;20042;-58
2022/06/21 11:56:49;;;;;;;6.82;4.10;;;;;;;21.60;47.44;101363.38;5095670;28;20059;-58
2022/06/21 11:59:25;;;;;;;8.40;4.20;;;;;;;21.92;45.48;101364.38;5095459;28;20090;-58
2022/06/21 12:01:59;;;;;;;8.00;4.30;;;;;;;21.98;45.95;101368.53;5095567;28;20028;-59
2022/06/21 12:04:46;;;;;;;8.07;3.85;;;;;;;22.30;46.13;101364.19;5095680;28;20125;-58
2022/06/21 12:07:17;;;;;;;6.80;3.65;;;;;;;22.39;44.37;101355.66;5095636;28;20043;-60
2022/06/21 12:09:57;;;;;;;;;;;;;;;22.58;44.56;101356.38;5096019;28;20354;-60
2022/06/21 12:12:47;;;;;;;5.55;3.97;;;;;;;22.19;44.75;101351.41;5095118;28;19908;-58
2022/06/21 12:15:27;;;;;;;7.25;3.90;;;;;;;22.03;44.38;101354.03;5095221;28;20039;-59
2022/06/21 12:18:14;;;;;;;5.97;4.20;;;;;;;21.97;44.49;101356.16;5095246;28;20028;-60